Gulf Breeze, FL

10:55 AM CST on December 20, 2014 (GMT -0600)
Pensacola Naval Air Station | Change Station
CLOSE
Current Station
Airport
Location: Pensacola NAS,
Elevation: 30 ft
Nearby Weather Stations

Elev 30 ft 30.36 °N, 87.32 °W | Updated 31 minutes ago

Rain
Rain
51 °F
Feels Like 51 °F
N
10
Wind Variable Wind from NE

Today
High -- | Low -- °F
--% Chance of Precip.
Yesterday
High -- | Low -- °F
Precip. -- in
6:40 AM 4:51 PM
Waning Crescent, 2% visible
Pressure 30.14 in
Visibility 2.5 miles
Clouds Overcast 700 ft
Dew Point 49 °F
Humidity 92%
Rainfall 0.22 in
Snow Depth Not available.
UV 1 out of 12
Pollen .50 out of 12
Air Quality Not available.
Flu Activity Not available.
SPECI KNPA 201624Z 04009KT 2 1/2SM -RA BR OVC007 11/09 A3014 RMK AO2 P0003 T01060094

More Conditions Fewer Conditions

Pressure 30.14 in
Visibility 2.5 miles
Clouds Overcast 700 ft
Dew Point 49 °F
Humidity 92%
Rainfall 0.22 in
Snow Depth Not available.
UV 1 out of 12
Pollen .50 out of 12
Air Quality Not available.
Flu Activity Not available.
SPECI KNPA 201624Z 04009KT 2 1/2SM -RA BR OVC007 11/09 A3014 RMK AO2 P0003 T01060094

More Conditions Fewer Conditions

10-Day Weather Forecast

Almanac

Astronomy

Dec. 20, 2014 Rise Set
Actual Time
Civil Twilight
Nautical Twilight
Astronomical Twilight
Moon
Length of Visible Light
Length of Day
Tomorrow will be .
, % of the Moon is Illuminated

Today's Extremes

State Highs State Lows

Community

WunderPhotos

Upload Photos

1,779,221 photos uploaded!

WunderBlogs® & News

Nearby

Air Quality

  Air Quality AQ Index Pollutant
Not available.

Snow Depth

Station Depth Elevation

Earthquake Activity

City Distance Mag. Time & Date
Minimum magnitude displayed is 2.5.

Coastal Water Temperatures

Place Temperature

Nearby Weather Stations